Time;durP1;ratioP1;P1;durP2;ratioP2;P2;SDS_P1;SDS_P2;PMS_P1;PMS_P2;Temp;Humidity;BMP_temperature;BMP_pressure;BME280_temperature;BME280_humidity;BME280_pressure;Samples;Min_cycle;Max_cycle;Signal;HPM_P1;HPM_P2
2023/04/18 00:04:16;;;;;;;27.73;10.83;;;;;;;;;;10525244;28;20048;-84
2023/04/18 00:09:17;;;;;;;25.83;10.20;;;;;;;;;;10526529;28;20028;-84
2023/04/18 00:14:19;;;;;;;25.23;11.83;;;;;;;;;;10536610;28;20095;-84
2023/04/18 00:19:20;;;;;;;26.13;11.33;;;;;;;;;;10531213;28;20043;-84
2023/04/18 00:24:21;;;;;;;22.80;11.07;;;;;;;;;;10533754;28;20371;-84
2023/04/18 00:29:22;;;;;;;27.30;12.00;;;;;;;;;;10534095;28;20086;-85
2023/04/18 00:34:23;;;;;;;25.47;12.10;;;;;;;;;;10530564;28;20116;-84
2023/04/18 00:39:24;;;;;;;26.53;11.83;;;;;;;;;;10533559;28;20032;-84
2023/04/18 00:44:25;;;;;;;28.87;10.67;;;;;;;;;;10532369;28;20028;-84
2023/04/18 00:49:26;;;;;;;26.13;10.97;;;;;;;;;;10513425;28;20052;-84
2023/04/18 00:54:28;;;;;;;23.30;10.10;;;;;;;;;;10532930;28;20032;-85
2023/04/18 00:59:29;;;;;;;28.53;12.70;;;;;;;;;;10514290;28;20040;-85
2023/04/18 01:04:31;;;;;;;29.37;11.93;;;;;;;;;;10531787;28;20458;-85
2023/04/18 01:09:32;;;;;;;25.77;10.73;;;;;;;;;;10532347;28;20093;-84
2023/04/18 01:14:33;;;;;;;28.63;10.63;;;;;;;;;;10513679;28;20433;-84
2023/04/18 01:19:34;;;;;;;25.70;10.70;;;;;;;;;;10531436;28;20032;-84
2023/04/18 01:24:35;;;;;;;23.50;10.57;;;;;;;;;;10531167;28;20078;-84
2023/04/18 01:29:36;;;;;;;27.83;10.20;;;;;;;;;;10530947;28;20119;-84
2023/04/18 01:34:37;;;;;;;29.80;10.83;;;;;;;;;;10529632;28;20093;-84
2023/04/18 01:39:38;;;;;;;27.77;11.10;;;;;;;;;;10531024;28;20376;-82
2023/04/18 01:44:38;;;;;;;29.40;12.00;;;;;;;;;;10530513;28;20531;-82
2023/04/18 01:49:45;;;;;;;20.23;9.87;;;;;;;;;;10529523;28;20052;-82
2023/04/18 01:54:46;;;;;;;23.73;11.07;;;;;;;;;;10529534;28;20737;-82
2023/04/18 01:59:47;;;;;;;23.37;10.53;;;;;;;;;;10530623;28;20040;-82
2023/04/18 02:04:48;;;;;;;26.90;11.83;;;;;;;;;;10502425;28;20437;-82
2023/04/18 02:09:49;;;;;;;20.50;8.73;;;;;;;;;;10488077;28;20567;-82
2023/04/18 02:14:51;;;;;;;23.83;10.17;;;;;;;;;;10486959;28;20028;-82
2023/04/18 02:19:52;;;;;;;20.13;9.20;;;;;;;;;;10468629;28;20029;-82
2023/04/18 02:24:53;;;;;;;21.50;9.23;;;;;;;;;;10486677;28;20035;-82
2023/04/18 02:29:54;;;;;;;23.87;9.47;;;;;;;;;;10486927;28;20048;-82
2023/04/18 02:34:54;;;;;;;26.00;10.10;;;;;;;;;;10485540;28;20055;-81
2023/04/18 02:39:56;;;;;;;21.33;8.77;;;;;;;;;;10486096;28;20414;-82
2023/04/18 02:44:57;;;;;;;21.00;9.40;;;;;;;;;;10485562;28;20038;-81
2023/04/18 02:49:58;;;;;;;25.90;10.07;;;;;;;;;;10485698;28;20040;-82
2023/04/18 02:54:59;;;;;;;26.70;11.83;;;;;;;;;;10484431;28;20033;-82
2023/04/18 03:00:00;;;;;;;30.07;12.20;;;;;;;;;;10474693;28;20467;-83
2023/04/18 03:05:01;;;;;;;30.03;12.83;;;;;;;;;;10514711;28;20059;-82
2023/04/18 03:10:02;;;;;;;36.27;14.60;;;;;;;;;;10528764;28;20047;-81
2023/04/18 03:15:03;;;;;;;40.67;15.33;;;;;;;;;;10526370;28;20035;-80
2023/04/18 03:20:04;;;;;;;46.20;17.27;;;;;;;;;;10525588;28;20028;-81
2023/04/18 03:25:06;;;;;;;49.67;19.57;;;;;;;;;;10526300;28;20028;-79
2023/04/18 03:30:07;;;;;;;43.83;18.90;;;;;;;;;;10526003;28;20475;-81
2023/04/18 03:35:08;;;;;;;44.00;16.33;;;;;;;;;;10526129;28;20110;-82
2023/04/18 03:40:10;;;;;;;44.90;19.00;;;;;;;;;;10525199;28;20024;-82
2023/04/18 03:45:11;;;;;;;41.50;17.60;;;;;;;;;;10526497;28;20043;-79
2023/04/18 03:50:12;;;;;;;51.23;20.90;;;;;;;;;;10525871;28;20036;-83
2023/04/18 03:55:13;;;;;;;48.97;19.17;;;;;;;;;;10521203;28;20044;-82
2023/04/18 04:00:14;;;;;;;48.20;19.00;;;;;;;;;;10531410;28;20111;-82
2023/04/18 04:05:15;;;;;;;54.27;22.53;;;;;;;;;;10504749;28;20455;-81
2023/04/18 04:10:16;;;;;;;55.87;24.27;;;;;;;;;;10494872;28;20119;-82
2023/04/18 04:15:17;;;;;;;56.17;26.43;;;;;;;;;;10491399;28;20093;-83
2023/04/18 04:20:22;;;;;;;56.90;23.67;;;;;;;;;;10476349;28;20115;-82
2023/04/18 04:25:27;;;;;;;62.65;26.38;;;;;;;;;;10475397;28;20494;-81
2023/04/18 04:30:28;;;;;;;61.47;24.27;;;;;;;;;;10490964;28;20094;-82
2023/04/18 04:35:30;;;;;;;59.23;24.73;;;;;;;;;;10493169;28;20032;-82
2023/04/18 04:40:31;;;;;;;53.27;24.47;;;;;;;;;;10477815;28;20094;-82
2023/04/18 04:45:33;;;;;;;60.70;23.10;;;;;;;;;;10493142;28;20032;-82
2023/04/18 04:50:35;;;;;;;55.53;24.37;;;;;;;;;;10490817;28;20039;-84
2023/04/18 04:55:37;;;;;;;53.43;22.30;;;;;;;;;;10488339;28;20604;-81
2023/04/18 05:00:38;;;;;;;56.40;23.17;;;;;;;;;;10471997;28;20124;-83
2023/04/18 05:05:39;;;;;;;48.00;20.23;;;;;;;;;;10535954;28;20387;-82
2023/04/18 05:10:41;;;;;;;48.60;23.07;;;;;;;;;;10532321;28;20047;-82
2023/04/18 05:15:42;;;;;;;49.43;20.37;;;;;;;;;;10531242;28;20032;-83
2023/04/18 05:20:43;;;;;;;49.45;22.95;;;;;;;;;;10531015;28;20032;-81
2023/04/18 05:25:44;;;;;;;42.80;21.10;;;;;;;;;;10530533;28;20119;-83
2023/04/18 05:30:45;;;;;;;51.43;22.37;;;;;;;;;;10529101;28;20493;-82
2023/04/18 05:35:46;;;;;;;48.88;21.17;;;;;;;;;;10531430;28;20063;-83
2023/04/18 05:40:49;;;;;;;45.75;23.15;;;;;;;;;;10530857;28;20069;-82
2023/04/18 05:45:54;;;;;;;39.08;18.02;;;;;;;;;;10531192;28;20115;-82
2023/04/18 05:50:55;;;;;;;33.47;17.08;;;;;;;;;;10530962;28;20024;-82
2023/04/18 05:55:57;;;;;;;43.95;20.55;;;;;;;;;;10530551;28;20020;-81
2023/04/18 06:00:58;;;;;;;35.90;17.35;;;;;;;;;;10530784;28;20031;-82
2023/04/18 06:05:59;;;;;;;73.32;38.42;;;;;;;;;;10531455;28;20093;-81
2023/04/18 06:11:00;;;;;;;34.97;17.00;;;;;;;;;;10530558;28;20048;-83
2023/04/18 06:16:01;;;;;;;36.25;17.27;;;;;;;;;;10510764;28;20039;-82
2023/04/18 06:21:02;;;;;;;32.78;16.80;;;;;;;;;;10530497;28;20042;-83
2023/04/18 06:26:03;;;;;;;27.88;15.52;;;;;;;;;;10529920;28;20044;-82
2023/04/18 06:31:04;;;;;;;24.20;14.20;;;;;;;;;;10529409;28;20093;-82
2023/04/18 06:36:06;;;;;;;30.25;15.23;;;;;;;;;;10529216;28;20055;-82
2023/04/18 06:41:07;;;;;;;27.33;13.95;;;;;;;;;;10528803;28;20111;-82
2023/04/18 06:46:08;;;;;;;28.25;15.10;;;;;;;;;;10528966;28;20032;-83
2023/04/18 06:51:09;;;;;;;27.60;13.07;;;;;;;;;;10528284;28;20057;-81
2023/04/18 06:56:09;;;;;;;27.48;14.02;;;;;;;;;;10520445;28;20093;-82
2023/04/18 07:01:10;;;;;;;23.33;14.25;;;;;;;;;;10511872;28;20027;-83
2023/04/18 07:06:11;;;;;;;24.80;12.18;;;;;;;;;;10527900;28;20571;-83
2023/04/18 07:11:12;;;;;;;23.73;11.98;;;;;;;;;;10528777;28;20040;-82
2023/04/18 07:16:13;;;;;;;20.80;12.00;;;;;;;;;;10528329;28;20042;-82
2023/04/18 07:21:14;;;;;;;21.00;11.68;;;;;;;;;;10527430;28;20378;-83
2023/04/18 07:26:15;;;;;;;22.50;12.07;;;;;;;;;;10527914;28;20105;-82
2023/04/18 07:31:18;;;;;;;20.13;12.13;;;;;;;;;;10526662;28;20452;-82
2023/04/18 07:36:19;;;;;;;22.23;12.30;;;;;;;;;;10509121;28;20024;-83
2023/04/18 07:41:20;;;;;;;21.02;13.25;;;;;;;;;;10527236;28;20032;-82
2023/04/18 07:46:21;;;;;;;20.20;12.82;;;;;;;;;;10527422;28;20032;-83
2023/04/18 07:51:24;;;;;;;22.75;13.35;;;;;;;;;;10526774;28;20068;-83
2023/04/18 07:56:25;;;;;;;23.70;14.40;;;;;;;;;;10526606;28;20024;-81
2023/04/18 08:01:26;;;;;;;23.17;12.93;;;;;;;;;;10524727;28;20046;-82
2023/04/18 08:06:28;;;;;;;24.38;14.98;;;;;;;;;;10525443;28;20426;-83
2023/04/18 08:11:28;;;;;;;21.45;13.23;;;;;;;;;;10525381;28;20052;-83
2023/04/18 08:16:29;;;;;;;19.52;12.98;;;;;;;;;;10523705;28;20024;-81
2023/04/18 08:21:30;;;;;;;21.58;12.18;;;;;;;;;;10525755;28;20033;-83
2023/04/18 08:26:31;;;;;;;19.30;11.23;;;;;;;;;;10525308;28;20058;-84
2023/04/18 08:31:32;;;;;;;19.35;12.15;;;;;;;;;;10524866;28;20039;-84
2023/04/18 08:36:34;;;;;;;18.92;11.10;;;;;;;;;;10525447;28;20036;-83
2023/04/18 08:41:36;;;;;;;18.23;10.60;;;;;;;;;;10530086;28;20031;-83
2023/04/18 08:46:37;;;;;;;17.05;10.50;;;;;;;;;;10532552;28;20036;-84
2023/04/18 08:51:40;;;;;;;20.98;12.85;;;;;;;;;;10533041;28;20035;-85
2023/04/18 08:56:41;;;;;;;16.20;10.10;;;;;;;;;;10533254;28;20119;-83
2023/04/18 09:01:55;;;;;;;18.17;11.57;;;;;;;;;;10530485;28;20089;-83
2023/04/18 09:06:56;;;;;;;16.40;10.50;;;;;;;;;;10495099;28;20052;-83
2023/04/18 09:12:06;;;;;;;15.68;9.85;;;;;;;;;;10497797;28;20132;-82
2023/04/18 09:17:07;;;;;;;17.42;10.35;;;;;;;;;;10499037;28;20028;-82
2023/04/18 09:22:08;;;;;;;18.50;10.55;;;;;;;;;;10491256;28;20024;-81
2023/04/18 09:27:13;;;;;;;15.18;9.43;;;;;;;;;;10492947;28;20036;-82
2023/04/18 09:32:24;;;;;;;12.90;9.32;;;;;;;;;;10499133;28;21005;-83
2023/04/18 09:37:25;;;;;;;13.73;8.35;;;;;;;;;;10489519;28;20020;-82
2023/04/18 09:42:26;;;;;;;13.63;8.52;;;;;;;;;;10489242;28;20068;-82
2023/04/18 09:47:27;;;;;;;13.13;7.82;;;;;;;;;;10492105;28;20497;-81
2023/04/18 09:52:32;;;;;;;10.45;6.45;;;;;;;;;;10498790;28;20068;-83
2023/04/18 09:57:35;;;;;;;14.87;9.23;;;;;;;;;;10489158;28;20605;-82
2023/04/18 10:03:02;;;;;;;15.13;9.82;;;;;;;;;;10511925;28;20367;-83
2023/04/18 10:08:03;;;;;;;14.30;9.95;;;;;;;;;;10492750;28;20047;-81
2023/04/18 10:13:05;;;;;;;15.32;9.55;;;;;;;;;;10502434;28;20048;-81
2023/04/18 10:18:09;;;;;;;12.32;8.65;;;;;;;;;;10490028;28;20032;-83
2023/04/18 10:23:29;;;;;;;14.63;9.20;;;;;;;;;;10487933;28;20036;-81
2023/04/18 10:28:53;;;;;;;20.10;11.93;;;;;;;;;;10487275;28;20036;-81
2023/04/18 10:33:54;;;;;;;13.10;8.57;;;;;;;;;;10487270;28;20171;-82
2023/04/18 10:38:59;;;;;;;18.65;9.18;;;;;;;;;;10487335;28;20067;-81
2023/04/18 10:44:06;;;;;;;13.02;7.25;;;;;;;;;;10487011;28;20048;-82
2023/04/18 10:49:13;;;;;;;10.60;7.10;;;;;;;;;;10486848;28;20040;-82
2023/04/18 10:54:37;;;;;;;11.95;7.50;;;;;;;;;;10486932;28;20025;-82
2023/04/18 10:59:43;;;;;;;10.63;5.78;;;;;;;;;;10460613;28;20036;-80
2023/04/18 11:04:50;;;;;;;9.20;6.03;;;;;;;;;;10513067;28;20153;-82
2023/04/18 11:09:54;;;;;;;8.82;5.93;;;;;;;;;;10528058;28;20027;-82
2023/04/18 11:14:55;;;;;;;8.07;5.30;;;;;;;;;;10528045;28;20431;-82
2023/04/18 11:20:00;;;;;;;6.68;5.50;;;;;;;;;;10528023;28;20020;-82
2023/04/18 11:25:06;;;;;;;9.93;5.63;;;;;;;;;;10532594;28;20078;-81
2023/04/18 11:30:08;;;;;;;11.85;5.15;;;;;;;;;;10535105;28;20040;-82
2023/04/18 11:35:10;;;;;;;5.80;4.68;;;;;;;;;;10528180;28;20055;-82
2023/04/18 11:40:11;;;;;;;8.57;4.72;;;;;;;;;;10527158;28;20036;-83
2023/04/18 11:45:13;;;;;;;5.70;4.50;;;;;;;;;;10527709;28;20073;-83
2023/04/18 11:50:14;;;;;;;8.23;5.25;;;;;;;;;;10527150;28;20040;-81
2023/04/18 11:55:25;;;;;;;6.65;4.05;;;;;;;;;;10526987;28;20020;-83
2023/04/18 12:00:31;;;;;;;6.38;4.40;;;;;;;;;;10527490;28;20113;-82
2023/04/18 12:05:32;;;;;;;6.65;4.57;;;;;;;;;;10526464;28;20048;-83
2023/04/18 12:10:34;;;;;;;6.18;4.70;;;;;;;;;;10524400;28;20043;-82
2023/04/18 12:15:42;;;;;;;8.45;4.47;;;;;;;;;;10528590;28;20020;-82
2023/04/18 12:20:48;;;;;;;7.00;4.00;;;;;;;;;;10533944;28;20020;-83
2023/04/18 12:25:58;;;;;;;5.18;3.97;;;;;;;;;;10534299;28;20101;-82
2023/04/18 12:30:59;;;;;;;7.13;3.85;;;;;;;;;;10514757;28;20039;-83
2023/04/18 12:36:00;;;;;;;7.03;4.85;;;;;;;;;;10533336;28;20548;-80
2023/04/18 12:41:06;;;;;;;10.82;6.03;;;;;;;;;;10533251;28;20050;-81
2023/04/18 12:46:07;;;;;;;7.22;5.63;;;;;;;;;;10532679;28;20036;-81
2023/04/18 12:51:08;;;;;;;7.68;5.47;;;;;;;;;;10533128;28;20036;-81
2023/04/18 12:56:11;;;;;;;10.57;5.47;;;;;;;;;;10533175;28;20062;-81
2023/04/18 13:01:12;;;;;;;8.73;4.97;;;;;;;;;;10531750;28;20506;-81
2023/04/18 13:06:13;;;;;;;8.25;5.43;;;;;;;;;;10495238;28;20128;-80
2023/04/18 13:11:15;;;;;;;11.25;5.50;;;;;;;;;;10493663;28;20075;-80
2023/04/18 13:16:16;;;;;;;9.40;5.35;;;;;;;;;;10499422;28;20599;-80
2023/04/18 13:21:17;;;;;;;9.73;6.10;;;;;;;;;;10500331;28;20037;-80
2023/04/18 13:26:18;;;;;;;6.53;5.35;;;;;;;;;;10489474;28;20766;-80
2023/04/18 13:31:19;;;;;;;9.02;5.15;;;;;;;;;;10496150;28;20048;-80
2023/04/18 13:36:20;;;;;;;9.15;4.80;;;;;;;;;;10506569;28;20033;-80
2023/04/18 13:41:21;;;;;;;8.98;5.50;;;;;;;;;;10503685;28;20031;-80
2023/04/18 13:46:22;;;;;;;8.10;5.10;;;;;;;;;;10473993;28;20404;-82
2023/04/18 13:51:23;;;;;;;5.47;4.40;;;;;;;;;;10498699;28;20036;-80
2023/04/18 13:56:27;;;;;;;7.97;5.18;;;;;;;;;;10471891;28;20036;-82
2023/04/18 14:01:28;;;;;;;8.15;4.97;;;;;;;;;;10492719;28;20561;-80
2023/04/18 14:06:29;;;;;;;7.43;4.50;;;;;;;;;;10528077;28;20059;-82
2023/04/18 14:11:32;;;;;;;6.47;4.93;;;;;;;;;;10531269;28;20127;-82
2023/04/18 14:16:34;;;;;;;6.75;5.40;;;;;;;;;;10528651;28;20091;-80
2023/04/18 14:21:35;;;;;;;8.77;5.32;;;;;;;;;;10528982;28;20679;-81
2023/04/18 14:26:38;;;;;;;11.18;5.93;;;;;;;;;;10527794;28;20028;-80
2023/04/18 14:31:39;;;;;;;8.52;5.50;;;;;;;;;;10528111;28;20093;-83
2023/04/18 14:36:42;;;;;;;8.07;5.45;;;;;;;;;;10526177;28;20077;-80
2023/04/18 14:41:46;;;;;;;9.10;6.20;;;;;;;;;;10523330;28;20510;-81
2023/04/18 14:46:47;;;;;;;10.45;5.47;;;;;;;;;;10528883;28;20040;-80
2023/04/18 14:51:52;;;;;;;7.03;5.32;;;;;;;;;;10527679;28;20039;-80
2023/04/18 14:56:54;;;;;;;8.02;5.47;;;;;;;;;;10496782;28;20039;-81
2023/04/18 15:01:55;;;;;;;7.38;5.55;;;;;;;;;;10526951;28;20438;-79
2023/04/18 15:06:56;;;;;;;7.95;5.72;;;;;;;;;;10527417;28;20032;-79
2023/04/18 15:11:58;;;;;;;9.98;6.10;;;;;;;;;;10528171;28;20138;-81
2023/04/18 15:16:59;;;;;;;8.25;6.13;;;;;;;;;;10528027;28;20471;-81
2023/04/18 15:22:01;;;;;;;11.00;6.05;;;;;;;;;;10526061;28;20035;-81
2023/04/18 15:27:06;;;;;;;14.45;9.18;;;;;;;;;;10525322;28;20795;-81
2023/04/18 15:32:08;;;;;;;17.98;9.45;;;;;;;;;;10562088;28;20074;-81
2023/04/18 15:37:09;;;;;;;10.00;5.97;;;;;;;;;;10563843;28;20024;-81
2023/04/18 15:42:15;;;;;;;11.38;7.00;;;;;;;;;;10524230;28;20534;-82
2023/04/18 15:47:24;;;;;;;13.70;8.65;;;;;;;;;;10492121;28;20039;-81
2023/04/18 15:52:27;;;;;;;15.50;8.00;;;;;;;;;;10526476;28;20051;-82
2023/04/18 15:57:30;;;;;;;8.60;6.50;;;;;;;;;;10520156;28;20549;-81
2023/04/18 16:02:35;;;;;;;8.90;7.47;;;;;;;;;;10525372;28;20836;-83
2023/04/18 16:07:37;;;;;;;11.60;7.55;;;;;;;;;;10508262;28;20093;-81
2023/04/18 16:12:40;;;;;;;10.93;7.20;;;;;;;;;;10507447;28;20039;-82
2023/04/18 16:17:43;;;;;;;13.57;7.93;;;;;;;;;;10506401;28;20121;-80
2023/04/18 16:22:48;;;;;;;11.75;7.85;;;;;;;;;;10525389;28;20024;-82
2023/04/18 16:27:51;;;;;;;13.30;8.65;;;;;;;;;;10524661;28;20402;-81
2023/04/18 16:32:59;;;;;;;14.80;9.95;;;;;;;;;;10524198;28;20036;-80
2023/04/18 16:38:04;;;;;;;14.38;9.23;;;;;;;;;;10524610;28;20032;-81
2023/04/18 16:43:05;;;;;;;13.02;8.02;;;;;;;;;;10525183;28;20073;-81
2023/04/18 16:48:06;;;;;;;16.48;9.23;;;;;;;;;;10515156;28;20046;-83
2023/04/18 16:53:07;;;;;;;17.17;9.52;;;;;;;;;;10527500;28;20097;-82
2023/04/18 16:58:08;;;;;;;15.38;8.82;;;;;;;;;;10525232;28;20097;-80
2023/04/18 17:03:09;;;;;;;14.63;8.55;;;;;;;;;;10527212;28;20044;-83
2023/04/18 17:08:10;;;;;;;15.82;9.05;;;;;;;;;;10545219;28;20378;-81
2023/04/18 17:13:11;;;;;;;14.55;8.68;;;;;;;;;;10538606;28;20035;-81
2023/04/18 17:18:12;;;;;;;16.00;9.20;;;;;;;;;;10517729;28;20110;-81
2023/04/18 17:23:13;;;;;;;14.95;9.20;;;;;;;;;;10512168;28;20036;-81
2023/04/18 17:28:15;;;;;;;15.18;9.63;;;;;;;;;;10530581;28;20032;-79
2023/04/18 17:33:16;;;;;;;16.08;8.90;;;;;;;;;;10531400;28;20055;-83
2023/04/18 17:38:17;;;;;;;20.08;9.27;;;;;;;;;;10522638;28;20126;-83
2023/04/18 17:43:18;;;;;;;13.88;8.88;;;;;;;;;;10529331;28;20114;-84
2023/04/18 17:48:19;;;;;;;17.73;9.70;;;;;;;;;;10528441;28;20024;-82
2023/04/18 17:53:20;;;;;;;19.40;9.77;;;;;;;;;;10528549;28;20071;-82
2023/04/18 17:58:20;;;;;;;18.13;10.45;;;;;;;;;;10529334;28;20562;-82
2023/04/18 18:03:22;;;;;;;13.30;8.82;;;;;;;;;;10515470;28;20433;-82
2023/04/18 18:08:23;;;;;;;14.23;8.48;;;;;;;;;;10490513;28;20035;-83
2023/04/18 18:13:24;;;;;;;13.20;9.05;;;;;;;;;;10490678;28;20400;-83
2023/04/18 18:18:25;;;;;;;14.30;8.80;;;;;;;;;;10493904;28;20036;-81
2023/04/18 18:23:26;;;;;;;14.40;9.13;;;;;;;;;;10486379;28;20024;-81
2023/04/18 18:28:27;;;;;;;16.30;8.68;;;;;;;;;;10488852;28;20024;-83
2023/04/18 18:33:28;;;;;;;11.90;8.43;;;;;;;;;;10489918;28;20036;-84
2023/04/18 18:38:29;;;;;;;12.23;8.60;;;;;;;;;;10492731;28;20111;-82
2023/04/18 18:43:31;;;;;;;14.07;9.13;;;;;;;;;;10492252;28;20033;-82
2023/04/18 18:48:35;;;;;;;19.13;10.90;;;;;;;;;;10493524;28;20041;-81
2023/04/18 18:53:36;;;;;;;18.08;11.15;;;;;;;;;;10486269;28;20032;-83
2023/04/18 18:58:38;;;;;;;22.85;12.88;;;;;;;;;;10488201;28;20036;-83
2023/04/18 19:03:39;;;;;;;23.42;13.60;;;;;;;;;;10513185;28;20446;-82
2023/04/18 19:08:40;;;;;;;28.08;16.15;;;;;;;;;;10531470;28;20044;-82
2023/04/18 19:13:41;;;;;;;32.15;18.85;;;;;;;;;;10525868;28;20072;-83
2023/04/18 19:18:45;;;;;;;34.00;19.27;;;;;;;;;;10507223;28;20081;-82
2023/04/18 19:23:46;;;;;;;41.55;23.48;;;;;;;;;;10524945;28;20036;-82
2023/04/18 19:28:47;;;;;;;38.10;23.55;;;;;;;;;;10507445;28;20023;-84
2023/04/18 19:33:49;;;;;;;40.35;21.85;;;;;;;;;;10506580;28;20048;-86
2023/04/18 19:38:50;;;;;;;39.03;22.65;;;;;;;;;;10526105;28;20649;-85
2023/04/18 19:43:51;;;;;;;41.08;24.50;;;;;;;;;;10526387;28;20040;-83
2023/04/18 19:48:52;;;;;;;47.83;26.45;;;;;;;;;;10525617;28;20036;-84
2023/04/18 19:53:54;;;;;;;40.13;24.65;;;;;;;;;;10532384;28;20407;-83
2023/04/18 19:58:56;;;;;;;50.40;28.92;;;;;;;;;;10525943;28;20605;-83
2023/04/18 20:03:58;;;;;;;49.10;28.83;;;;;;;;;;10494917;28;20094;-83
2023/04/18 20:09:00;;;;;;;51.40;30.17;;;;;;;;;;10526120;28;20032;-83
2023/04/18 20:14:01;;;;;;;59.03;31.23;;;;;;;;;;10525005;28;20040;-84
2023/04/18 20:19:02;;;;;;;57.63;30.58;;;;;;;;;;10525654;28;20028;-83
2023/04/18 20:24:04;;;;;;;56.17;29.90;;;;;;;;;;10525874;28;20532;-84
2023/04/18 20:29:05;;;;;;;57.35;30.83;;;;;;;;;;10507705;28;20036;-84
2023/04/18 20:34:06;;;;;;;62.92;31.17;;;;;;;;;;10525000;28;20044;-84
2023/04/18 20:39:11;;;;;;;58.67;32.40;;;;;;;;;;10532125;28;20024;-83
2023/04/18 20:44:15;;;;;;;60.40;31.53;;;;;;;;;;10533292;28;20379;-84
2023/04/18 20:49:16;;;;;;;53.80;29.85;;;;;;;;;;10513403;28;20043;-84
2023/04/18 20:54:17;;;;;;;66.13;33.42;;;;;;;;;;10532731;28;20799;-84
2023/04/18 20:59:18;;;;;;;58.13;30.98;;;;;;;;;;10532272;28;20428;-84
2023/04/18 21:04:20;;;;;;;55.35;31.38;;;;;;;;;;10513712;28;20478;-84
2023/04/18 21:09:21;;;;;;;62.38;32.53;;;;;;;;;;10491235;28;20025;-84
2023/04/18 21:14:22;;;;;;;66.85;31.65;;;;;;;;;;10471545;28;20040;-84
2023/04/18 21:19:23;;;;;;;58.38;31.88;;;;;;;;;;10489147;28;20033;-84
2023/04/18 21:24:24;;;;;;;56.90;31.23;;;;;;;;;;10489547;28;20024;-84
2023/04/18 21:29:25;;;;;;;57.38;31.23;;;;;;;;;;10490048;28;20025;-84
2023/04/18 21:34:26;;;;;;;53.15;30.08;;;;;;;;;;10489055;28;20037;-84
2023/04/18 21:39:27;;;;;;;53.85;29.15;;;;;;;;;;10489211;28;20107;-84
2023/04/18 21:44:28;;;;;;;56.00;30.10;;;;;;;;;;10489157;28;20039;-84
2023/04/18 21:49:29;;;;;;;64.45;33.15;;;;;;;;;;10487736;28;20471;-84
2023/04/18 21:54:30;;;;;;;58.78;31.30;;;;;;;;;;10470985;28;20204;-84
2023/04/18 21:59:31;;;;;;;56.85;30.85;;;;;;;;;;10489029;28;20028;-84
2023/04/18 22:04:32;;;;;;;55.38;29.38;;;;;;;;;;10511216;28;20056;-83
2023/04/18 22:09:35;;;;;;;64.95;33.72;;;;;;;;;;10529742;28;20055;-84
2023/04/18 22:14:36;;;;;;;64.47;31.65;;;;;;;;;;10510915;28;20557;-83
2023/04/18 22:19:36;;;;;;;57.28;29.13;;;;;;;;;;10510619;28;20043;-83
2023/04/18 22:24:37;;;;;;;59.05;30.30;;;;;;;;;;10529247;28;20047;-84
2023/04/18 22:29:38;;;;;;;63.00;30.90;;;;;;;;;;10528833;28;20032;-83
2023/04/18 22:34:39;;;;;;;63.67;31.48;;;;;;;;;;10510909;28;20056;-84
2023/04/18 22:39:40;;;;;;;66.43;32.63;;;;;;;;;;10519287;28;20395;-83
2023/04/18 22:44:41;;;;;;;60.03;30.88;;;;;;;;;;10527873;28;20554;-83
2023/04/18 22:49:43;;;;;;;61.00;30.50;;;;;;;;;;10529185;28;20371;-85
2023/04/18 22:54:44;;;;;;;56.47;28.13;;;;;;;;;;10528232;28;20028;-83
2023/04/18 22:59:45;;;;;;;58.38;31.77;;;;;;;;;;10527458;28;20032;-85
2023/04/18 23:04:46;;;;;;;60.63;30.20;;;;;;;;;;10527811;28;20083;-83
2023/04/18 23:09:47;;;;;;;57.75;31.25;;;;;;;;;;10527430;28;20024;-85
2023/04/18 23:14:48;;;;;;;55.78;29.70;;;;;;;;;;10508578;28;20501;-85
2023/04/18 23:19:49;;;;;;;60.97;30.65;;;;;;;;;;10527347;28;20032;-84
2023/04/18 23:24:50;;;;;;;57.33;29.58;;;;;;;;;;10508626;28;20044;-85
2023/04/18 23:29:51;;;;;;;60.67;29.70;;;;;;;;;;10526256;28;20036;-83
2023/04/18 23:34:52;;;;;;;55.35;27.95;;;;;;;;;;10524895;28;20043;-83
2023/04/18 23:39:53;;;;;;;57.80;29.55;;;;;;;;;;10526402;28;20157;-83
2023/04/18 23:44:53;;;;;;;50.90;26.67;;;;;;;;;;10527100;28;20032;-83
2023/04/18 23:49:54;;;;;;;56.58;27.10;;;;;;;;;;10526133;28;20047;-84
2023/04/18 23:54:59;;;;;;;53.75;27.63;;;;;;;;;;10526045;28;20070;-84
